Time;durP1;ratioP1;P1;durP2;ratioP2;P2;SDS_P1;SDS_P2;PMS_P1;PMS_P2;Temp;Humidity;BMP_temperature;BMP_pressure;BME280_temperature;BME280_humidity;BME280_pressure;Samples;Min_cycle;Max_cycle;Signal;HPM_P1;HPM_P2
2023/05/06 00:01:26;;;;;;;9.30;5.60;;;;;;;10.97;60.92;98701.48;104592;1264;99382;-64
2023/05/06 00:03:53;;;;;;;8.00;5.40;;;;;;;10.91;61.40;98698.23;104502;1266;99302;-66
2023/05/06 00:06:21;;;;;;;10.70;5.30;;;;;;;10.86;61.61;98693.70;104550;1263;108845;-66
2023/05/06 00:08:48;;;;;;;8.60;5.20;;;;;;;10.87;61.61;98691.67;104637;1273;98034;-70
2023/05/06 00:11:15;;;;;;;8.50;5.30;;;;;;;10.85;61.89;98692.05;104588;1264;99238;-69
2023/05/06 00:13:42;;;;;;;9.00;5.10;;;;;;;10.79;62.32;98692.19;104605;1264;97883;-66
2023/05/06 00:16:09;;;;;;;6.80;5.10;;;;;;;10.76;62.45;98693.69;104521;1275;97989;-71
2023/05/06 00:18:36;;;;;;;9.90;5.40;;;;;;;10.74;62.64;98687.83;104610;1266;98540;-66
2023/05/06 00:21:02;;;;;;;10.30;6.00;;;;;;;10.70;62.90;98679.94;104591;1266;97939;-65
2023/05/06 00:23:29;;;;;;;7.90;5.30;;;;;;;10.63;63.13;98677.20;104662;1264;98006;-66
2023/05/06 00:25:56;;;;;;;10.00;5.50;;;;;;;10.60;63.37;98672.58;104547;1267;98572;-69
2023/05/06 00:28:23;;;;;;;7.30;5.20;;;;;;;10.57;63.28;98672.81;104533;1263;97941;-68
2023/05/06 00:30:50;;;;;;;8.40;5.50;;;;;;;10.56;63.64;98669.23;104796;1273;97966;-70
2023/05/06 00:33:17;;;;;;;9.30;5.00;;;;;;;10.52;63.70;98666.95;104530;1260;97947;-67
2023/05/06 00:35:44;;;;;;;9.60;5.40;;;;;;;10.48;63.83;98667.38;104623;1264;97996;-70
2023/05/06 00:38:14;;;;;;;10.50;4.90;;;;;;;10.46;64.21;98662.33;104600;1264;97935;-67
2023/05/06 00:40:41;;;;;;;8.20;4.90;;;;;;;10.43;64.58;98663.52;104556;1260;99247;-66
2023/05/06 00:43:09;;;;;;;8.80;5.10;;;;;;;10.40;64.39;98661.04;104457;1264;97906;-66
2023/05/06 00:45:37;;;;;;;8.20;5.40;;;;;;;10.38;64.73;98663.29;104519;1259;99136;-66
2023/05/06 00:48:06;;;;;;;7.30;4.70;;;;;;;10.35;64.71;98664.39;104525;1261;111275;-70
2023/05/06 00:50:34;;;;;;;8.40;5.30;;;;;;;10.35;64.57;98662.76;104426;1262;98796;-77
2023/05/06 00:53:03;;;;;;;8.60;5.20;;;;;;;10.32;64.78;98666.27;104579;1264;107014;-69
2023/05/06 00:55:30;;;;;;;10.20;5.20;;;;;;;10.27;65.16;98661.84;104642;1264;97935;-66
2023/05/06 00:57:58;;;;;;;8.50;5.10;;;;;;;10.22;65.56;98662.18;104569;1264;97938;-67
2023/05/06 01:00:25;;;;;;;7.40;4.70;;;;;;;10.18;65.71;98660.18;104428;1264;112225;-66
2023/05/06 01:02:52;;;;;;;7.40;4.90;;;;;;;10.12;66.05;98656.89;104568;1266;98598;-68
2023/05/06 01:05:21;;;;;;;8.40;5.50;;;;;;;10.10;66.22;98660.34;104465;1265;97960;-67
2023/05/06 01:08:16;;;;;;;7.50;5.30;;;;;;;10.08;66.16;98666.90;104597;1273;97995;-68
2023/05/06 01:10:56;;;;;;;8.00;5.00;;;;;;;10.06;66.55;98665.48;104573;1259;98257;-66
2023/05/06 01:13:29;;;;;;;4.80;3.70;;;;;;;10.01;66.79;98657.36;104592;1263;112221;-67
2023/05/06 01:15:59;;;;;;;8.90;5.00;;;;;;;9.99;66.74;98660.98;104469;1274;98919;-67
2023/05/06 01:18:31;;;;;;;7.90;4.20;;;;;;;9.99;66.78;98662.50;104538;1275;108519;-67
2023/05/06 01:20:59;;;;;;;8.20;4.90;;;;;;;9.96;67.36;98661.14;104524;1261;99307;-67
2023/05/06 01:23:26;;;;;;;9.30;5.10;;;;;;;9.95;66.96;98664.58;104646;1276;99273;-67
2023/05/06 01:25:53;;;;;;;10.80;5.30;;;;;;;9.92;67.42;98665.45;104577;1264;99230;-67
2023/05/06 01:28:20;;;;;;;7.30;4.70;;;;;;;9.89;67.39;98662.45;104549;1264;97990;-66
2023/05/06 01:31:08;;;;;;;6.40;4.60;;;;;;;9.86;67.92;98663.83;104541;1274;98048;-67
2023/05/06 01:33:50;;;;;;;8.10;4.70;;;;;;;9.83;67.65;98665.45;104587;1274;97996;-67
2023/05/06 01:36:52;;;;;;;7.90;5.00;;;;;;;9.82;67.87;98666.77;104436;1264;98082;-66
2023/05/06 01:39:24;;;;;;;10.80;5.10;;;;;;;9.80;67.94;98673.38;104344;1266;111744;-66
2023/05/06 01:41:56;;;;;;;5.50;4.10;;;;;;;9.83;67.75;98668.13;104528;1260;99250;-67
2023/05/06 01:44:26;;;;;;;6.80;4.40;;;;;;;9.84;68.01;98663.50;104564;1264;108653;-66
2023/05/06 01:46:55;;;;;;;7.10;4.90;;;;;;;9.82;68.07;98661.35;104412;1265;101490;-65
2023/05/06 01:49:24;;;;;;;8.00;4.60;;;;;;;9.79;68.35;98659.84;104625;1259;97944;-67
2023/05/06 01:51:52;;;;;;;8.20;4.90;;;;;;;9.75;68.40;98656.73;104594;1260;112334;-67
2023/05/06 01:54:19;;;;;;;7.70;5.00;;;;;;;9.70;68.67;98653.02;104666;1264;99415;-66
2023/05/06 01:56:46;;;;;;;7.40;4.90;;;;;;;9.65;68.53;98653.89;104573;1264;97931;-66
2023/05/06 01:59:13;;;;;;;8.00;4.30;;;;;;;9.63;68.84;98654.48;104455;1263;97957;-66
2023/05/06 02:01:40;;;;;;;7.90;5.30;;;;;;;9.61;68.98;98650.37;104444;1260;98454;-66
2023/05/06 02:04:07;;;;;;;7.30;5.20;;;;;;;9.57;68.95;98645.88;104463;1263;97913;-66
2023/05/06 02:06:34;;;;;;;5.90;3.30;;;;;;;9.55;68.93;98645.36;104582;1263;98008;-66
2023/05/06 02:09:02;;;;;;;5.90;4.40;;;;;;;9.50;69.34;98644.64;104437;1264;97926;-71
2023/05/06 02:11:29;;;;;;;7.80;4.70;;;;;;;9.45;69.75;98641.58;104467;1274;98006;-66
2023/05/06 02:13:57;;;;;;;8.70;5.00;;;;;;;9.45;69.74;98641.77;104639;1264;99272;-74
2023/05/06 02:16:27;;;;;;;8.40;4.50;;;;;;;9.44;69.72;98643.90;104605;1265;99142;-69
2023/05/06 02:18:54;;;;;;;7.10;4.50;;;;;;;9.44;69.92;98642.93;104554;1276;107590;-67
2023/05/06 02:21:22;;;;;;;5.60;3.00;;;;;;;9.42;69.78;98640.11;104503;1278;97975;-67
2023/05/06 02:23:49;;;;;;;10.20;5.00;;;;;;;9.38;70.01;98637.51;104574;1263;98399;-68
2023/05/06 02:26:16;;;;;;;8.00;4.80;;;;;;;9.37;69.75;98640.10;104430;1264;99215;-66
2023/05/06 02:28:43;;;;;;;8.10;4.90;;;;;;;9.33;70.52;98641.13;104593;1273;98371;-67
2023/05/06 02:31:14;;;;;;;9.60;4.90;;;;;;;9.29;70.37;98640.88;104583;1264;98036;-66
2023/05/06 02:33:43;;;;;;;7.70;5.10;;;;;;;9.27;70.41;98637.70;104594;1265;97945;-68
2023/05/06 02:36:10;;;;;;;8.20;4.70;;;;;;;9.24;70.49;98637.47;104585;1259;98093;-68
2023/05/06 02:38:37;;;;;;;5.60;3.70;;;;;;;9.22;70.29;98633.86;104546;1281;97973;-67
2023/05/06 02:41:04;;;;;;;9.00;5.40;;;;;;;9.17;70.96;98636.74;104542;1264;98589;-70
2023/05/06 02:43:31;;;;;;;6.50;4.70;;;;;;;9.13;71.26;98638.45;104520;1263;98021;-67
2023/05/06 02:45:58;;;;;;;10.40;5.00;;;;;;;9.08;71.64;98631.63;104566;1275;98046;-70
2023/05/06 02:48:25;;;;;;;9.40;5.20;;;;;;;9.08;71.22;98629.15;104590;1264;98274;-68
2023/05/06 02:50:52;;;;;;;7.10;4.60;;;;;;;9.11;71.07;98638.39;104575;1264;99235;-67
2023/05/06 02:53:19;;;;;;;8.30;4.80;;;;;;;9.12;71.18;98639.14;104632;1275;98729;-70
2023/05/06 02:55:46;;;;;;;8.80;4.80;;;;;;;9.12;71.04;98639.69;104474;1267;98119;-67
2023/05/06 02:58:13;;;;;;;7.00;4.40;;;;;;;9.09;71.40;98639.25;104553;1266;99247;-70
2023/05/06 03:00:40;;;;;;;8.20;5.30;;;;;;;9.01;71.90;98640.11;104448;1260;97944;-67
2023/05/06 03:03:08;;;;;;;8.60;5.80;;;;;;;8.99;71.72;98635.52;104565;1264;99235;-67
2023/05/06 03:05:35;;;;;;;7.80;4.90;;;;;;;8.97;71.77;98639.11;104476;1264;97945;-66
2023/05/06 03:08:02;;;;;;;7.80;5.30;;;;;;;8.92;72.52;98633.34;104549;1264;97938;-69
2023/05/06 03:10:29;;;;;;;8.10;5.30;;;;;;;8.90;72.13;98635.52;104521;1265;98007;-68
2023/05/06 03:12:57;;;;;;;9.20;5.40;;;;;;;8.92;72.30;98635.75;104480;1261;98019;-66
2023/05/06 03:15:24;;;;;;;6.80;5.00;;;;;;;8.93;72.16;98632.86;104595;1282;99282;-70
2023/05/06 03:17:52;;;;;;;6.80;4.40;;;;;;;8.95;72.35;98631.34;104555;1264;97951;-65
2023/05/06 03:20:20;;;;;;;8.60;5.20;;;;;;;8.94;72.79;98629.12;104584;1264;98393;-66
2023/05/06 03:22:47;;;;;;;8.00;5.40;;;;;;;8.90;72.87;98628.46;104539;1263;99247;-67
2023/05/06 03:25:15;;;;;;;8.50;5.50;;;;;;;8.87;72.97;98626.95;104590;1264;98018;-67
2023/05/06 03:27:42;;;;;;;9.00;5.70;;;;;;;8.86;72.78;98629.15;104597;1264;99246;-66
2023/05/06 03:30:10;;;;;;;11.30;6.50;;;;;;;8.85;72.56;98625.13;104380;1264;99241;-67
2023/05/06 03:32:37;;;;;;;8.20;5.00;;;;;;;8.81;73.55;98624.83;104590;1266;97974;-67
2023/05/06 03:35:06;;;;;;;9.60;5.60;;;;;;;8.77;73.21;98626.58;104477;1275;99322;-73
2023/05/06 03:37:34;;;;;;;8.70;6.40;;;;;;;8.73;73.78;98626.56;104655;1264;112138;-68
2023/05/06 03:40:03;;;;;;;9.00;4.90;;;;;;;8.72;73.99;98627.83;104551;1277;98339;-66
2023/05/06 03:42:30;;;;;;;7.50;4.10;;;;;;;8.77;73.44;98629.55;104623;1259;108679;-68
2023/05/06 03:44:57;;;;;;;10.30;5.60;;;;;;;8.78;73.77;98626.85;104616;1264;98018;-67
2023/05/06 03:47:24;;;;;;;9.70;6.00;;;;;;;8.82;73.32;98631.34;104650;1259;98612;-69
2023/05/06 03:49:51;;;;;;;8.60;5.40;;;;;;;8.84;73.53;98635.98;104567;1265;97937;-67
2023/05/06 03:52:19;;;;;;;11.60;5.70;;;;;;;8.82;73.81;98636.83;104610;1260;98428;-70
2023/05/06 03:54:46;;;;;;;8.20;6.10;;;;;;;8.78;74.12;98637.06;104568;1259;97908;-69
2023/05/06 03:57:14;;;;;;;7.90;5.40;;;;;;;8.76;74.00;98638.52;104615;1274;98047;-67
2023/05/06 03:59:41;;;;;;;7.00;3.40;;;;;;;8.75;73.93;98636.36;104512;1260;98456;-68
2023/05/06 04:02:08;;;;;;;6.50;4.80;;;;;;;8.76;73.95;98638.02;104466;1264;97958;-70
2023/05/06 04:04:35;;;;;;;6.80;4.10;;;;;;;8.83;73.95;98640.09;104451;1281;99158;-67
2023/05/06 04:07:02;;;;;;;8.50;4.40;;;;;;;8.87;73.58;98642.35;104378;1264;99327;-66
2023/05/06 04:09:32;;;;;;;7.40;4.90;;;;;;;8.89;73.68;98644.66;104522;1264;98018;-69
2023/05/06 04:11:59;;;;;;;9.30;5.20;;;;;;;8.96;73.50;98641.59;104624;1259;97938;-67
2023/05/06 04:14:26;;;;;;;7.90;5.00;;;;;;;9.01;73.29;98644.99;104578;1274;97872;-68
2023/05/06 04:16:53;;;;;;;9.50;5.80;;;;;;;9.01;73.26;98647.17;104462;1275;98327;-67
2023/05/06 04:19:20;;;;;;;10.00;5.20;;;;;;;9.03;73.57;98649.44;104501;1275;97964;-66
2023/05/06 04:21:47;;;;;;;8.00;5.80;;;;;;;9.02;73.54;98648.64;104590;1264;97957;-67
2023/05/06 04:24:17;;;;;;;10.70;5.70;;;;;;;8.99;74.13;98646.95;104622;1259;98603;-66
2023/05/06 04:26:44;;;;;;;9.50;5.20;;;;;;;8.98;74.11;98648.17;104541;1263;112286;-67
2023/05/06 04:29:11;;;;;;;9.10;5.70;;;;;;;9.02;73.85;98647.10;104521;1274;97941;-66
2023/05/06 04:31:38;;;;;;;7.40;4.20;;;;;;;9.07;73.61;98638.27;104568;1264;97902;-68
2023/05/06 04:34:05;;;;;;;9.60;5.90;;;;;;;9.08;74.08;98635.30;104599;1273;98874;-68
2023/05/06 04:36:32;;;;;;;8.70;5.80;;;;;;;9.08;74.02;98633.26;104626;1264;98327;-67
2023/05/06 04:38:59;;;;;;;8.30;5.70;;;;;;;9.11;73.84;98632.16;104683;1259;98042;-67
2023/05/06 04:41:29;;;;;;;7.10;4.80;;;;;;;9.11;74.14;98628.92;104479;1264;99223;-67
2023/05/06 04:43:58;;;;;;;5.70;3.90;;;;;;;9.12;74.12;98634.59;104294;1277;108093;-67
2023/05/06 04:46:32;;;;;;;9.00;4.60;;;;;;;9.13;73.97;98629.72;104530;1266;98740;-68
2023/05/06 04:49:05;;;;;;;10.90;5.70;;;;;;;9.14;74.11;98622.05;104625;1264;98351;-67
2023/05/06 04:51:39;;;;;;;9.20;5.40;;;;;;;9.15;74.16;98618.94;104532;1264;112278;-67
2023/05/06 04:54:07;;;;;;;7.50;5.50;;;;;;;9.14;74.08;98616.50;104533;1260;98378;-72
2023/05/06 04:56:34;;;;;;;7.60;4.40;;;;;;;9.18;74.24;98613.33;104441;1263;97967;-70
2023/05/06 04:59:01;;;;;;;9.80;5.70;;;;;;;9.20;73.89;98613.16;104561;1278;98054;-70
2023/05/06 05:01:28;;;;;;;9.20;5.70;;;;;;;9.23;73.98;98609.50;104636;1259;98011;-68
2023/05/06 05:03:55;;;;;;;10.30;6.10;;;;;;;9.23;74.11;98608.40;104566;1274;98095;-68
2023/05/06 05:06:23;;;;;;;9.60;5.40;;;;;;;9.26;73.88;98609.04;104620;1260;98015;-70
2023/05/06 05:08:50;;;;;;;8.80;4.10;;;;;;;9.36;73.73;98607.21;104591;1266;98469;-71
2023/05/06 05:11:17;;;;;;;8.30;5.40;;;;;;;9.41;73.60;98604.85;104548;1265;98903;-68
2023/05/06 05:13:44;;;;;;;8.00;5.10;;;;;;;9.42;73.55;98597.28;104832;1258;97998;-70
2023/05/06 05:16:11;;;;;;;8.70;4.00;;;;;;;9.41;73.34;98596.25;104703;1260;99608;-72
2023/05/06 05:18:38;;;;;;;8.70;5.10;;;;;;;9.44;73.57;98598.95;104752;1259;97960;-69
2023/05/06 05:21:05;;;;;;;7.50;4.60;;;;;;;9.52;73.37;98596.83;104723;1262;98004;-74
2023/05/06 05:23:32;;;;;;;8.40;4.60;;;;;;;9.65;73.29;98599.23;104506;1266;97966;-74
2023/05/06 05:26:00;;;;;;;10.70;6.30;;;;;;;9.82;72.82;98600.04;104363;1265;98082;-70
2023/05/06 05:28:27;;;;;;;9.50;5.00;;;;;;;9.97;72.23;98594.55;104506;1263;99225;-68
2023/05/06 05:31:00;;;;;;;7.00;5.30;;;;;;;10.04;72.16;98596.63;104559;1259;98082;-73
2023/05/06 05:33:27;;;;;;;9.20;5.60;;;;;;;10.17;72.19;98593.39;104290;1274;98656;-71
2023/05/06 05:35:54;;;;;;;9.20;5.10;;;;;;;10.33;71.41;98591.30;104579;1264;99204;-73
2023/05/06 05:38:22;;;;;;;9.30;5.00;;;;;;;10.36;70.87;98590.19;104579;1273;98837;-68
2023/05/06 05:40:49;;;;;;;10.80;6.30;;;;;;;10.34;70.96;98593.79;104598;1263;97944;-71
2023/05/06 05:43:16;;;;;;;9.20;5.80;;;;;;;10.41;71.01;98598.27;104613;1275;97961;-67
2023/05/06 05:45:43;;;;;;;7.00;4.90;;;;;;;10.52;70.49;98599.52;104626;1259;99257;-68
2023/05/06 05:48:10;;;;;;;6.80;4.30;;;;;;;10.58;70.05;98593.20;104524;1275;97910;-67
2023/05/06 05:50:37;;;;;;;8.70;6.20;;;;;;;10.63;70.01;98595.05;104723;1262;98002;-68
2023/05/06 05:53:04;;;;;;;10.40;5.70;;;;;;;10.70;70.02;98589.38;104768;1262;98943;-67
2023/05/06 05:55:31;;;;;;;9.10;5.40;;;;;;;10.88;69.67;98582.95;104800;1262;97938;-67
2023/05/06 05:57:58;;;;;;;10.10;5.10;;;;;;;11.10;69.17;98583.05;104659;1260;98839;-66
2023/05/06 06:00:25;;;;;;;5.90;4.10;;;;;;;11.32;69.06;98582.52;104544;1265;112226;-67
2023/05/06 06:02:52;;;;;;;10.50;5.90;;;;;;;11.39;67.94;98576.77;104463;1259;97952;-67
2023/05/06 06:05:20;;;;;;;7.20;5.00;;;;;;;11.37;68.20;98577.80;104691;1260;99263;-67
2023/05/06 06:07:49;;;;;;;8.30;5.10;;;;;;;11.38;67.66;98580.20;104788;1259;99370;-66
2023/05/06 06:10:22;;;;;;;8.50;5.20;;;;;;;11.49;67.95;98579.19;104716;1262;99119;-68
2023/05/06 06:13:06;;;;;;;7.70;4.50;;;;;;;11.71;67.25;98578.14;104763;1262;111842;-68
2023/05/06 06:15:45;;;;;;;9.30;5.80;;;;;;;11.88;67.36;98574.99;104676;1261;100687;-70
2023/05/06 06:18:13;;;;;;;7.40;5.00;;;;;;;12.07;66.69;98566.30;104329;1263;108456;-72
2023/05/06 06:20:40;;;;;;;6.80;4.50;;;;;;;12.21;66.19;98562.17;104811;1262;98032;-73
2023/05/06 06:23:07;;;;;;;14.00;5.30;;;;;;;12.23;66.26;98556.03;104802;1262;97960;-68
2023/05/06 06:25:34;;;;;;;9.50;4.80;;;;;;;12.23;65.76;98553.77;105053;1262;97924;-70
2023/05/06 06:28:01;;;;;;;8.10;5.00;;;;;;;12.27;65.94;98546.95;104857;1262;97981;-70
2023/05/06 06:30:29;;;;;;;9.00;4.90;;;;;;;12.46;65.87;98543.64;104685;1262;97973;-69
2023/05/06 06:33:00;;;;;;;8.00;5.20;;;;;;;12.61;65.07;98543.64;104651;1259;99238;-67
2023/05/06 06:35:27;;;;;;;5.90;3.90;;;;;;;12.73;64.76;98539.54;104626;1260;97952;-68
2023/05/06 06:37:54;;;;;;;7.90;5.00;;;;;;;12.82;64.86;98535.13;104820;1262;97938;-68
2023/05/06 06:40:21;;;;;;;8.40;4.80;;;;;;;12.90;64.58;98534.85;104828;1262;98064;-72
2023/05/06 06:42:49;;;;;;;9.30;5.30;;;;;;;13.04;64.33;98535.36;104726;1259;97951;-72
2023/05/06 06:45:16;;;;;;;7.70;5.10;;;;;;;13.18;63.69;98538.14;104767;1264;97921;-68
2023/05/06 06:47:43;;;;;;;9.90;5.00;;;;;;;13.28;63.52;98536.85;104757;1262;98009;-68
2023/05/06 06:50:10;;;;;;;9.50;5.50;;;;;;;13.27;63.40;98537.48;104827;1264;97899;-71
2023/05/06 06:52:38;;;;;;;9.50;5.20;;;;;;;13.25;63.35;98538.15;104662;1273;99605;-68
2023/05/06 06:55:06;;;;;;;6.00;4.30;;;;;;;13.27;63.57;98536.21;104677;1262;99218;-67
2023/05/06 06:57:32;;;;;;;7.80;4.80;;;;;;;13.25;62.87;98535.73;104543;1260;98038;-67
2023/05/06 06:59:59;;;;;;;7.90;4.70;;;;;;;13.17;63.01;98534.71;104756;1275;97921;-67
2023/05/06 07:02:26;;;;;;;10.80;5.20;;;;;;;13.10;63.02;98533.41;104828;1262;98614;-70
2023/05/06 07:04:54;;;;;;;5.60;4.10;;;;;;;13.04;63.54;98533.23;104839;1273;98487;-69
2023/05/06 07:07:21;;;;;;;8.20;4.90;;;;;;;13.07;63.46;98531.73;104769;1262;98808;-68
2023/05/06 07:09:48;;;;;;;7.60;5.10;;;;;;;13.10;63.16;98532.23;104684;1262;98834;-68
2023/05/06 07:12:19;;;;;;;9.10;4.80;;;;;;;13.08;63.47;98528.56;104535;1263;98264;-69
2023/05/06 07:14:55;;;;;;;7.30;4.40;;;;;;;13.10;63.72;98527.14;104823;1261;111159;-70
2023/05/06 07:17:25;;;;;;;7.20;4.40;;;;;;;13.15;63.26;98519.55;104449;1274;98730;-67
2023/05/06 07:19:52;;;;;;;6.90;4.70;;;;;;;13.12;63.03;98521.23;104737;1263;97945;-67
2023/05/06 07:22:19;;;;;;;8.40;4.40;;;;;;;13.11;63.12;98520.67;104552;1260;98910;-67
2023/05/06 07:24:46;;;;;;;6.30;4.50;;;;;;;13.14;63.25;98515.77;104760;1262;97859;-72
2023/05/06 07:27:13;;;;;;;7.10;4.50;;;;;;;13.20;63.04;98516.83;104766;1259;98620;-66
2023/05/06 07:29:40;;;;;;;7.80;4.80;;;;;;;13.20;62.92;98508.73;104660;1262;97949;-67
2023/05/06 07:32:06;;;;;;;7.60;4.60;;;;;;;13.20;63.18;98509.73;104561;1262;97951;-68
2023/05/06 07:34:34;;;;;;;9.20;4.70;;;;;;;13.17;63.11;98510.11;104754;1261;98618;-70
2023/05/06 07:37:02;;;;;;;8.00;4.80;;;;;;;13.20;62.96;98513.14;104604;1259;112505;-72
2023/05/06 07:39:30;;;;;;;6.70;4.50;;;;;;;13.25;63.12;98510.42;104556;1269;98735;-69
2023/05/06 07:41:57;;;;;;;6.70;4.40;;;;;;;13.31;63.11;98505.13;104554;1259;97931;-68
2023/05/06 07:44:24;;;;;;;9.70;4.60;;;;;;;13.29;62.99;98508.90;104686;1262;97967;-71
2023/05/06 07:46:51;;;;;;;8.50;4.90;;;;;;;13.29;62.94;98509.31;104767;1259;97930;-72
2023/05/06 07:49:18;;;;;;;5.70;4.10;;;;;;;13.33;63.09;98508.83;104747;1275;98239;-68
2023/05/06 07:51:45;;;;;;;7.50;4.10;;;;;;;13.36;62.91;98506.28;104537;1259;97939;-68
2023/05/06 07:54:12;;;;;;;8.10;4.90;;;;;;;13.29;63.10;98504.91;104757;1263;107009;-68
2023/05/06 07:56:39;;;;;;;6.80;4.00;;;;;;;13.27;63.19;98502.50;104634;1262;99113;-67
2023/05/06 07:59:06;;;;;;;6.80;4.30;;;;;;;13.31;63.40;98500.81;104442;1260;99113;-68
2023/05/06 08:01:33;;;;;;;7.60;5.20;;;;;;;13.34;63.09;98498.55;104686;1262;99247;-68
2023/05/06 08:04:00;;;;;;;8.10;4.90;;;;;;;13.42;63.21;98496.48;104842;1263;97934;-69
2023/05/06 08:06:28;;;;;;;8.40;5.00;;;;;;;13.47;63.04;98500.10;104749;1264;98034;-71
2023/05/06 08:08:54;;;;;;;9.20;5.20;;;;;;;13.51;63.13;98498.35;104609;1273;98030;-68
2023/05/06 08:11:21;;;;;;;7.00;4.10;;;;;;;13.56;63.23;98496.15;104697;1260;98059;-70
2023/05/06 08:13:49;;;;;;;6.50;4.10;;;;;;;13.62;63.09;98495.25;104607;1273;97922;-71
2023/05/06 08:16:16;;;;;;;6.20;4.40;;;;;;;13.66;63.28;98496.48;104731;1262;97942;-67
2023/05/06 08:18:43;;;;;;;9.20;4.70;;;;;;;13.74;63.09;98495.36;104780;1262;97945;-67
2023/05/06 08:21:10;;;;;;;9.70;4.60;;;;;;;13.76;62.91;98500.30;104504;1262;99506;-67
2023/05/06 08:23:37;;;;;;;8.20;4.50;;;;;;;13.74;63.10;98496.65;104755;1276;97913;-68
2023/05/06 08:26:04;;;;;;;8.90;5.70;;;;;;;13.66;63.67;98492.64;104718;1274;98072;-72
2023/05/06 08:28:32;;;;;;;10.00;5.60;;;;;;;13.65;63.95;98486.81;104777;1262;97997;-67
2023/05/06 08:30:59;;;;;;;8.00;4.80;;;;;;;13.74;63.89;98488.27;104749;1260;97987;-66
2023/05/06 08:33:26;;;;;;;6.80;4.60;;;;;;;13.80;63.86;98487.40;104677;1262;97950;-67
2023/05/06 08:35:56;;;;;;;9.10;4.20;;;;;;;13.79;64.08;98485.85;104695;1260;99113;-67
2023/05/06 08:38:24;;;;;;;7.70;4.70;;;;;;;13.77;64.19;98486.42;104747;1262;108398;-67
2023/05/06 08:40:53;;;;;;;6.80;4.60;;;;;;;13.75;64.05;98487.98;104583;1266;97976;-67
2023/05/06 08:43:22;;;;;;;6.00;4.50;;;;;;;13.75;64.02;98494.85;104872;1264;98011;-67
2023/05/06 08:45:50;;;;;;;9.20;4.60;;;;;;;13.75;64.62;98492.11;104793;1264;112237;-67
2023/05/06 08:48:17;;;;;;;8.80;4.70;;;;;;;13.68;65.72;98485.46;104716;1263;99815;-67
2023/05/06 08:50:48;;;;;;;6.20;4.90;;;;;;;13.55;66.71;98477.80;104757;1262;98002;-68
2023/05/06 08:53:16;;;;;;;6.70;4.50;;;;;;;13.50;67.16;98479.02;104638;1266;98592;-67
2023/05/06 08:55:44;;;;;;;7.70;4.70;;;;;;;13.36;67.27;98481.80;104738;1271;98415;-66
2023/05/06 08:58:15;;;;;;;6.40;3.70;;;;;;;13.35;67.86;98476.63;104764;1261;111147;-66
2023/05/06 09:00:45;;;;;;;7.00;4.40;;;;;;;13.32;68.32;98480.88;104246;1269;98471;-71
2023/05/06 09:03:12;;;;;;;7.80;4.40;;;;;;;13.21;68.06;98484.02;104643;1260;108674;-74
2023/05/06 09:05:39;;;;;;;6.50;3.40;;;;;;;13.13;69.18;98490.00;104745;1267;97973;-70
2023/05/06 09:08:07;;;;;;;9.10;4.90;;;;;;;12.97;70.21;98487.98;104824;1262;99317;-69
2023/05/06 09:10:45;;;;;;;7.80;4.90;;;;;;;12.86;70.70;98491.33;104795;1262;98009;-68
2023/05/06 09:13:14;;;;;;;7.90;5.20;;;;;;;12.76;71.12;98497.73;104714;1262;99427;-68
2023/05/06 09:15:46;;;;;;;12.10;4.80;;;;;;;12.70;71.45;98503.03;104746;1273;109105;-67
2023/05/06 09:18:15;;;;;;;8.30;5.00;;;;;;;12.64;73.55;98500.15;104823;1273;99199;-69
2023/05/06 09:20:47;;;;;;;8.10;5.20;;;;;;;12.58;73.58;98513.09;104729;1264;98495;-69
2023/05/06 09:23:16;;;;;;;8.90;6.10;;;;;;;12.65;74.24;98529.58;104934;1262;112119;-68
2023/05/06 09:25:45;;;;;;;9.50;5.90;;;;;;;12.75;74.96;98537.52;104769;1260;98338;-69
2023/05/06 09:28:13;;;;;;;8.60;5.40;;;;;;;12.84;75.67;98538.31;104641;1279;107282;-71
2023/05/06 09:30:42;;;;;;;11.40;6.10;;;;;;;12.89;75.33;98543.79;104793;1263;98124;-71
2023/05/06 09:33:10;;;;;;;10.50;6.10;;;;;;;12.98;76.68;98547.30;104841;1260;98336;-71
2023/05/06 09:35:43;;;;;;;12.60;6.80;;;;;;;13.03;76.65;98553.29;104711;1263;112271;-66
2023/05/06 09:38:10;;;;;;;10.20;5.90;;;;;;;13.05;77.22;98545.12;104662;1277;98116;-64
2023/05/06 09:40:38;;;;;;;10.40;6.20;;;;;;;12.95;77.44;98544.27;104690;1263;97935;-62
2023/05/06 09:43:04;;;;;;;8.20;6.10;;;;;;;12.92;76.32;98544.39;104444;1268;98188;-62
2023/05/06 09:45:32;;;;;;;7.40;5.90;;;;;;;12.90;76.65;98545.80;104751;1262;97903;-63
2023/05/06 09:47:59;;;;;;;12.70;6.80;;;;;;;12.95;77.61;98546.05;104655;1272;98009;-63
2023/05/06 09:50:27;;;;;;;17.30;12.90;;;;;;;12.85;78.70;98543.88;104545;1260;97920;-71
2023/05/06 09:52:55;;;;;;;20.40;14.80;;;;;;;12.68;79.76;98535.59;104758;1262;98041;-73
2023/05/06 09:55:25;;;;;;;13.40;10.50;;;;;;;12.60;81.45;98534.72;104502;1263;98101;-72
2023/05/06 09:57:54;;;;;;;19.20;12.20;;;;;;;12.61;81.66;98533.65;104720;1259;98009;-69
2023/05/06 10:00:26;;;;;;;11.50;8.30;;;;;;;12.61;81.20;98526.76;104591;1259;112143;-70
2023/05/06 10:02:55;;;;;;;12.50;8.90;;;;;;;12.53;81.50;98519.61;104415;1273;98369;-69
2023/05/06 10:05:25;;;;;;;14.30;10.40;;;;;;;12.51;82.04;98512.77;104744;1264;108635;-68
2023/05/06 10:07:56;;;;;;;10.20;7.00;;;;;;;12.51;83.35;98512.05;104546;1263;97905;-69
2023/05/06 10:10:26;;;;;;;10.80;7.00;;;;;;;12.42;84.46;98512.81;104748;1263;97948;-68
2023/05/06 10:12:55;;;;;;;10.90;6.40;;;;;;;12.35;85.84;98509.98;104783;1262;112375;-70
2023/05/06 10:15:25;;;;;;;10.00;6.00;;;;;;;12.24;85.64;98511.74;104836;1262;100344;-71
2023/05/06 10:17:53;;;;;;;12.10;6.70;;;;;;;12.11;85.50;98515.91;104691;1273;108754;-70
2023/05/06 10:20:23;;;;;;;10.30;6.80;;;;;;;12.04;85.54;98528.38;104363;1262;99248;-71
2023/05/06 10:23:47;;;;;;;10.30;6.60;;;;;;;11.99;86.12;98517.89;104604;1262;99537;-72
2023/05/06 10:26:18;;;;;;;11.80;7.20;;;;;;;11.83;88.45;98514.10;104246;1266;111873;-72
2023/05/06 10:28:49;;;;;;;11.80;7.90;;;;;;;11.76;89.07;98504.91;104734;1262;99080;-67
2023/05/06 10:31:16;;;;;;;9.40;6.80;;;;;;;11.73;90.32;98499.40;104686;1273;108580;-63
2023/05/06 10:33:50;;;;;;;10.40;6.50;;;;;;;11.71;91.05;98496.21;104648;1264;99247;-63
2023/05/06 10:36:21;;;;;;;9.60;6.30;;;;;;;11.65;91.22;98489.08;104580;1267;97994;-62
2023/05/06 10:38:59;;;;;;;13.10;7.80;;;;;;;11.56;92.43;98489.40;104448;1278;111283;-62
2023/05/06 10:41:27;;;;;;;9.40;7.00;;;;;;;11.56;92.23;98486.35;104789;1260;99167;-62
2023/05/06 10:43:55;;;;;;;12.80;7.00;;;;;;;11.55;92.46;98481.98;104546;1266;108366;-60
2023/05/06 10:46:25;;;;;;;8.50;5.80;;;;;;;11.45;93.14;98477.09;104577;1269;97989;-61
2023/05/06 10:49:05;;;;;;;9.70;6.50;;;;;;;11.32;93.84;98480.80;104536;1274;98441;-61
2023/05/06 10:51:42;;;;;;;9.70;5.50;;;;;;;11.26;94.72;98485.48;104712;1263;112132;-60
2023/05/06 10:54:29;;;;;;;10.80;7.10;;;;;;;11.21;95.45;98485.58;104766;1260;99189;-61
2023/05/06 10:56:57;;;;;;;10.20;8.00;;;;;;;11.19;94.85;98479.16;104333;1268;107730;-62
2023/05/06 10:59:28;;;;;;;15.20;7.70;;;;;;;11.23;95.07;98481.83;104725;1273;98002;-62
2023/05/06 11:02:06;;;;;;;;;;;;;;;11.25;94.27;98479.52;104481;1268;98125;-62
2023/05/06 11:04:34;;;;;;;12.70;8.00;;;;;;;11.25;94.53;98476.96;104538;1265;111033;-63
2023/05/06 11:07:12;;;;;;;14.20;7.40;;;;;;;11.25;95.12;98477.90;104771;1262;99191;-61
2023/05/06 11:09:56;;;;;;;12.90;7.80;;;;;;;11.15;96.14;98476.64;104348;1268;106560;-62
2023/05/06 11:12:51;;;;;;;13.10;7.50;;;;;;;11.09;96.88;98477.16;104371;1263;98202;-62
2023/05/06 11:15:39;;;;;;;11.60;8.00;;;;;;;11.06;97.69;98480.21;104473;1268;98434;-63
2023/05/06 11:18:26;;;;;;;13.90;8.90;;;;;;;11.07;97.86;98480.79;104571;1264;111918;-71
2023/05/06 11:20:59;;;;;;;12.50;8.50;;;;;;;11.03;97.84;98485.13;104516;1261;98775;-66
2023/05/06 11:23:48;;;;;;;13.20;8.40;;;;;;;11.02;97.59;98488.67;104701;1262;108622;-62
2023/05/06 11:26:15;;;;;;;14.00;10.00;;;;;;;11.09;97.10;98497.27;104577;1282;97931;-63
2023/05/06 11:28:45;;;;;;;14.40;9.70;;;;;;;11.15;97.07;98499.36;104568;1262;97945;-63
2023/05/06 11:31:14;;;;;;;14.70;9.40;;;;;;;11.19;96.62;98501.63;104572;1263;112176;-62
2023/05/06 11:33:47;;;;;;;17.50;10.10;;;;;;;11.16;97.97;98500.55;104607;1274;99112;-61